sensor_id;sensor_type;location;lat;lon;timestamp;pressure;altitude;pressure_sealevel;temperature;humidity
47154;BME280;32907;41.412;2.164;2023-01-29T00:02:21;101086.97;;;15.85;32.04
47154;BME280;32907;41.412;2.164;2023-01-29T00:04:50;101125.78;;;16.12;31.85
47154;BME280;32907;41.412;2.164;2023-01-29T00:07:21;101115.13;;;16.06;31.80
47154;BME280;32907;41.412;2.164;2023-01-29T00:09:51;101042.16;;;15.55;31.53
47154;BME280;32907;41.412;2.164;2023-01-29T00:12:19;101098.34;;;15.87;31.53
47154;BME280;32907;41.412;2.164;2023-01-29T00:14:47;101062.16;;;15.71;31.42
47154;BME280;32907;41.412;2.164;2023-01-29T00:17:18;101045.63;;;15.51;31.55
47154;BME280;32907;41.412;2.164;2023-01-29T00:19:46;101099.97;;;15.88;31.46
47154;BME280;32907;41.412;2.164;2023-01-29T00:22:13;101091.47;;;15.79;31.92
47154;BME280;32907;41.412;2.164;2023-01-29T00:24:41;101135.22;;;15.93;32.31
47154;BME280;32907;41.412;2.164;2023-01-29T00:27:10;101132.00;;;16.13;32.26
47154;BME280;32907;41.412;2.164;2023-01-29T00:29:38;101136.91;;;16.16;32.34
47154;BME280;32907;41.412;2.164;2023-01-29T00:32:06;101116.13;;;16.00;32.65
47154;BME280;32907;41.412;2.164;2023-01-29T00:34:36;101136.06;;;16.15;32.27
47154;BME280;32907;41.412;2.164;2023-01-29T00:37:04;101116.25;;;16.10;32.60
47154;BME280;32907;41.412;2.164;2023-01-29T00:39:35;101104.75;;;15.98;32.57
47154;BME280;32907;41.412;2.164;2023-01-29T00:42:14;101128.47;;;16.12;32.15
47154;BME280;32907;41.412;2.164;2023-01-29T00:45:01;101092.06;;;15.81;31.88
47154;BME280;32907;41.412;2.164;2023-01-29T00:47:28;101088.84;;;15.84;32.13
47154;BME280;32907;41.412;2.164;2023-01-29T00:50:09;100984.81;;;15.15;32.13
47154;BME280;32907;41.412;2.164;2023-01-29T00:52:39;101100.75;;;15.83;32.26
47154;BME280;32907;41.412;2.164;2023-01-29T00:55:10;101129.91;;;15.98;31.94
47154;BME280;32907;41.412;2.164;2023-01-29T00:57:38;101114.34;;;15.88;32.08
47154;BME280;32907;41.412;2.164;2023-01-29T01:00:09;101131.78;;;15.98;32.24
47154;BME280;32907;41.412;2.164;2023-01-29T01:02:38;101009.78;;;15.22;32.21
47154;BME280;32907;41.412;2.164;2023-01-29T01:05:26;101086.81;;;15.58;32.31
47154;BME280;32907;41.412;2.164;2023-01-29T01:07:56;101132.25;;;15.94;32.16
47154;BME280;32907;41.412;2.164;2023-01-29T01:10:30;101142.53;;;15.92;32.48
47154;BME280;32907;41.412;2.164;2023-01-29T01:13:04;101139.31;;;15.95;32.25
47154;BME280;32907;41.412;2.164;2023-01-29T01:15:37;101145.78;;;15.94;32.75
47154;BME280;32907;41.412;2.164;2023-01-29T01:18:06;101139.56;;;15.94;32.84
47154;BME280;32907;41.412;2.164;2023-01-29T01:20:34;101139.56;;;15.94;33.03
47154;BME280;32907;41.412;2.164;2023-01-29T01:23:03;101018.06;;;15.15;32.98
47154;BME280;32907;41.412;2.164;2023-01-29T01:25:31;101047.53;;;15.33;32.67
47154;BME280;32907;41.412;2.164;2023-01-29T01:28:00;101152.53;;;15.92;32.81
47154;BME280;32907;41.412;2.164;2023-01-29T01:30:27;101124.25;;;15.83;32.47
47154;BME280;32907;41.412;2.164;2023-01-29T01:32:55;101055.72;;;15.38;32.58
47154;BME280;32907;41.412;2.164;2023-01-29T01:35:23;101152.78;;;15.90;32.59
47154;BME280;32907;41.412;2.164;2023-01-29T01:37:51;101137.78;;;15.83;32.43
47154;BME280;32907;41.412;2.164;2023-01-29T01:40:21;101131.41;;;15.72;32.39
47154;BME280;32907;41.412;2.164;2023-01-29T01:42:52;101111.31;;;15.51;31.99
47154;BME280;32907;41.412;2.164;2023-01-29T01:45:31;101108.94;;;15.55;31.96
47154;BME280;32907;41.412;2.164;2023-01-29T01:48:11;101155.91;;;15.82;32.08
47154;BME280;32907;41.412;2.164;2023-01-29T01:50:47;101071.94;;;15.22;31.93
47154;BME280;32907;41.412;2.164;2023-01-29T01:53:24;101146.63;;;15.78;32.36
47154;BME280;32907;41.412;2.164;2023-01-29T01:56:06;101108.06;;;15.49;31.73
47154;BME280;32907;41.412;2.164;2023-01-29T01:58:56;101150.75;;;15.81;32.08
47154;BME280;32907;41.412;2.164;2023-01-29T02:01:26;101158.84;;;15.81;31.92
47154;BME280;32907;41.412;2.164;2023-01-29T02:04:03;101153.53;;;15.69;31.91
47154;BME280;32907;41.412;2.164;2023-01-29T02:06:51;101150.41;;;15.77;32.00
47154;BME280;32907;41.412;2.164;2023-01-29T02:12:26;101125.97;;;15.55;31.86
47154;BME280;32907;41.412;2.164;2023-01-29T02:14:58;101153.06;;;15.72;31.55
47154;BME280;32907;41.412;2.164;2023-01-29T02:17:26;101121.22;;;15.46;31.77
47154;BME280;32907;41.412;2.164;2023-01-29T02:20:17;101157.03;;;15.70;31.98
47154;BME280;32907;41.412;2.164;2023-01-29T02:39:14;101153.34;;;15.59;32.01
47154;BME280;32907;41.412;2.164;2023-01-29T02:41:53;101135.16;;;15.37;31.73
47154;BME280;32907;41.412;2.164;2023-01-29T02:44:33;101157.09;;;15.58;31.83
47154;BME280;32907;41.412;2.164;2023-01-29T02:47:14;101100.16;;;15.14;32.04
47154;BME280;32907;41.412;2.164;2023-01-29T02:49:48;101146.97;;;15.48;31.80
47154;BME280;32907;41.412;2.164;2023-01-29T02:52:18;101141.22;;;15.45;32.07
47154;BME280;32907;41.412;2.164;2023-01-29T02:54:54;101090.44;;;15.13;31.88
47154;BME280;32907;41.412;2.164;2023-01-29T02:57:30;101101.16;;;15.08;32.10
47154;BME280;32907;41.412;2.164;2023-01-29T03:02:36;101145.78;;;15.44;32.07
47154;BME280;32907;41.412;2.164;2023-01-29T03:05:09;101021.66;;;14.70;32.22
47154;BME280;32907;41.412;2.164;2023-01-29T03:07:43;101100.16;;;15.14;32.38
47154;BME280;32907;41.412;2.164;2023-01-29T03:10:28;101055.38;;;14.85;31.98
47154;BME280;32907;41.412;2.164;2023-01-29T03:13:07;101111.56;;;15.16;32.02
47154;BME280;32907;41.412;2.164;2023-01-29T03:15:43;101128.41;;;15.23;32.10
47154;BME280;32907;41.412;2.164;2023-01-29T03:18:24;101151.59;;;15.36;32.53
47154;BME280;32907;41.412;2.164;2023-01-29T03:21:03;101084.19;;;14.96;32.20
47154;BME280;32907;41.412;2.164;2023-01-29T03:23:55;101158.41;;;15.38;32.10
47154;BME280;32907;41.412;2.164;2023-01-29T03:26:43;101165.13;;;15.36;31.92
47154;BME280;32907;41.412;2.164;2023-01-29T03:29:35;101098.66;;;14.90;31.78
47154;BME280;32907;41.412;2.164;2023-01-29T03:32:29;101125.13;;;15.04;32.04
47154;BME280;32907;41.412;2.164;2023-01-29T03:35:00;101032.56;;;14.47;31.52
47154;BME280;32907;41.412;2.164;2023-01-29T03:37:39;101163.06;;;15.26;32.03
47154;BME280;32907;41.412;2.164;2023-01-29T03:40:08;101163.53;;;15.23;32.05
47154;BME280;32907;41.412;2.164;2023-01-29T03:45:38;101168.94;;;15.23;31.98
47154;BME280;32907;41.412;2.164;2023-01-29T03:48:17;101170.59;;;15.24;32.29
47154;BME280;32907;41.412;2.164;2023-01-29T03:51:13;101174.94;;;15.25;32.74
47154;BME280;32907;41.412;2.164;2023-01-29T03:56:43;101172.31;;;15.30;32.72
47154;BME280;32907;41.412;2.164;2023-01-29T04:02:18;101154.78;;;15.16;32.40
47154;BME280;32907;41.412;2.164;2023-01-29T04:05:00;101114.16;;;14.94;32.41
47154;BME280;32907;41.412;2.164;2023-01-29T04:07:31;101169.59;;;15.30;32.15
47154;BME280;32907;41.412;2.164;2023-01-29T04:10:08;101114.16;;;14.94;32.12
47154;BME280;32907;41.412;2.164;2023-01-29T04:12:46;101152.31;;;15.31;31.99
47154;BME280;32907;41.412;2.164;2023-01-29T04:15:16;101177.41;;;15.44;32.32
47154;BME280;32907;41.412;2.164;2023-01-29T04:17:51;101171.50;;;15.47;31.98
47154;BME280;32907;41.412;2.164;2023-01-29T04:20:34;101173.06;;;15.43;32.03
47154;BME280;32907;41.412;2.164;2023-01-29T04:23:05;101063.28;;;14.74;31.77
47154;BME280;32907;41.412;2.164;2023-01-29T04:25:44;101154.22;;;15.31;31.91
47154;BME280;32907;41.412;2.164;2023-01-29T04:28:24;101029.66;;;14.65;31.50
47154;BME280;32907;41.412;2.164;2023-01-29T04:31:05;101176.69;;;15.48;31.84
47154;BME280;32907;41.412;2.164;2023-01-29T04:39:23;101188.47;;;15.59;32.08
47154;BME280;32907;41.412;2.164;2023-01-29T04:44:41;101182.50;;;15.57;31.99
47154;BME280;32907;41.412;2.164;2023-01-29T04:47:31;101189.28;;;15.59;31.55
47154;BME280;32907;41.412;2.164;2023-01-29T04:50:12;101192.00;;;15.59;31.71
47154;BME280;32907;41.412;2.164;2023-01-29T04:55:37;101168.38;;;15.38;31.66
47154;BME280;32907;41.412;2.164;2023-01-29T04:58:38;101184.06;;;15.53;31.57
47154;BME280;32907;41.412;2.164;2023-01-29T05:01:12;101201.53;;;15.62;32.00
47154;BME280;32907;41.412;2.164;2023-01-29T05:03:44;101181.34;;;15.53;31.71
47154;BME280;32907;41.412;2.164;2023-01-29T05:06:15;101202.19;;;15.69;31.55
47154;BME280;32907;41.412;2.164;2023-01-29T05:08:46;101212.19;;;15.69;31.15
47154;BME280;32907;41.412;2.164;2023-01-29T05:11:16;101139.31;;;15.28;30.76
47154;BME280;32907;41.412;2.164;2023-01-29T05:13:46;101210.09;;;15.59;31.09
47154;BME280;32907;41.412;2.164;2023-01-29T05:16:20;101212.81;;;15.59;31.29
47154;BME280;32907;41.412;2.164;2023-01-29T05:18:50;101240.66;;;15.59;31.39
47154;BME280;32907;41.412;2.164;2023-01-29T05:21:19;101205.56;;;15.48;31.30
47154;BME280;32907;41.412;2.164;2023-01-29T05:24:09;101220.34;;;15.57;31.50
47154;BME280;32907;41.412;2.164;2023-01-29T05:26:40;101221.16;;;15.57;31.40
47154;BME280;32907;41.412;2.164;2023-01-29T05:29:27;101177.97;;;15.29;31.18
47154;BME280;32907;41.412;2.164;2023-01-29T05:31:55;101224.78;;;15.63;31.31
47154;BME280;32907;41.412;2.164;2023-01-29T05:34:23;101117.50;;;14.85;30.88
47154;BME280;32907;41.412;2.164;2023-01-29T05:36:53;101169.25;;;15.10;30.88
47154;BME280;32907;41.412;2.164;2023-01-29T05:39:20;101216.72;;;15.34;31.05
47154;BME280;32907;41.412;2.164;2023-01-29T05:41:48;101232.13;;;15.51;31.38
47154;BME280;32907;41.412;2.164;2023-01-29T05:44:16;101160.22;;;15.04;31.58
47154;BME280;32907;41.412;2.164;2023-01-29T05:46:44;101159.75;;;15.07;31.17
47154;BME280;32907;41.412;2.164;2023-01-29T05:49:12;101187.38;;;15.26;31.31
47154;BME280;32907;41.412;2.164;2023-01-29T05:51:40;101196.16;;;15.33;31.27
47154;BME280;32907;41.412;2.164;2023-01-29T05:54:13;101257.34;;;15.68;31.62
47154;BME280;32907;41.412;2.164;2023-01-29T05:56:40;101196.00;;;15.40;31.47
47154;BME280;32907;41.412;2.164;2023-01-29T05:59:09;101131.81;;;14.85;30.60
47154;BME280;32907;41.412;2.164;2023-01-29T06:01:37;101258.06;;;15.63;30.62
47154;BME280;32907;41.412;2.164;2023-01-29T06:04:04;101132.41;;;14.75;30.62
47154;BME280;32907;41.412;2.164;2023-01-29T06:06:32;101234.84;;;15.22;30.70
47154;BME280;32907;41.412;2.164;2023-01-29T06:09:00;101203.34;;;14.99;31.09
47154;BME280;32907;41.412;2.164;2023-01-29T06:11:28;101204.41;;;14.98;31.37
47154;BME280;32907;41.412;2.164;2023-01-29T06:13:55;101241.75;;;15.30;31.18
47154;BME280;32907;41.412;2.164;2023-01-29T06:16:24;101271.06;;;15.38;30.66
47154;BME280;32907;41.412;2.164;2023-01-29T06:18:52;101269.78;;;15.41;31.14
47154;BME280;32907;41.412;2.164;2023-01-29T06:21:19;101097.91;;;14.37;31.04
47154;BME280;32907;41.412;2.164;2023-01-29T06:23:47;101282.50;;;15.40;31.30
47154;BME280;32907;41.412;2.164;2023-01-29T06:26:15;101200.44;;;15.01;31.14
47154;BME280;32907;41.412;2.164;2023-01-29T06:28:43;101285.63;;;15.49;30.73
47154;BME280;32907;41.412;2.164;2023-01-29T06:31:12;101176.78;;;14.79;30.75
47154;BME280;32907;41.412;2.164;2023-01-29T06:34:00;101240.38;;;15.16;31.03
47154;BME280;32907;41.412;2.164;2023-01-29T06:36:27;101298.63;;;15.52;31.34
47154;BME280;32907;41.412;2.164;2023-01-29T06:38:55;101305.19;;;15.56;31.30
47154;BME280;32907;41.412;2.164;2023-01-29T06:41:26;101281.56;;;15.34;31.48
47154;BME280;32907;41.412;2.164;2023-01-29T06:43:55;101278.88;;;15.34;31.68
47154;BME280;32907;41.412;2.164;2023-01-29T06:46:22;101243.72;;;15.06;31.72
47154;BME280;32907;41.412;2.164;2023-01-29T06:48:50;101279.44;;;15.36;31.16
47154;BME280;32907;41.412;2.164;2023-01-29T06:51:18;101315.94;;;15.51;30.75
47154;BME280;32907;41.412;2.164;2023-01-29T06:53:47;101244.31;;;15.08;31.31
47154;BME280;32907;41.412;2.164;2023-01-29T06:56:15;101328.88;;;15.49;31.42
47154;BME280;32907;41.412;2.164;2023-01-29T06:58:43;101267.75;;;15.19;31.58
47154;BME280;32907;41.412;2.164;2023-01-29T07:01:11;101287.28;;;15.38;32.05
47154;BME280;32907;41.412;2.164;2023-01-29T07:04:00;101247.47;;;15.17;32.54
47154;BME280;32907;41.412;2.164;2023-01-29T07:06:28;101271.22;;;15.31;32.86
47154;BME280;32907;41.412;2.164;2023-01-29T07:08:56;101301.34;;;15.52;31.94
47154;BME280;32907;41.412;2.164;2023-01-29T07:11:24;101311.09;;;15.53;30.99
47154;BME280;32907;41.412;2.164;2023-01-29T07:13:52;101201.88;;;14.80;30.76
47154;BME280;32907;41.412;2.164;2023-01-29T07:16:19;101265.31;;;15.18;31.82
47154;BME280;32907;41.412;2.164;2023-01-29T07:18:47;101340.47;;;15.61;33.20
47154;BME280;32907;41.412;2.164;2023-01-29T07:21:15;101308.66;;;15.39;32.93
47154;BME280;32907;41.412;2.164;2023-01-29T07:23:44;101294.00;;;15.35;32.28
47154;BME280;32907;41.412;2.164;2023-01-29T07:26:12;101357.88;;;15.65;32.85
47154;BME280;32907;41.412;2.164;2023-01-29T07:28:41;101326.56;;;15.41;33.31
47154;BME280;32907;41.412;2.164;2023-01-29T07:31:11;101355.22;;;15.70;33.58
47154;BME280;32907;41.412;2.164;2023-01-29T07:33:43;101373.09;;;15.71;32.96
47154;BME280;32907;41.412;2.164;2023-01-29T07:36:14;101319.84;;;15.31;32.54
47154;BME280;32907;41.412;2.164;2023-01-29T07:38:42;101376.66;;;15.60;31.96
47154;BME280;32907;41.412;2.164;2023-01-29T07:41:10;101385.97;;;15.52;32.28
47154;BME280;32907;41.412;2.164;2023-01-29T07:43:39;101322.28;;;15.16;32.84
47154;BME280;32907;41.412;2.164;2023-01-29T07:46:07;101311.16;;;15.01;32.80
47154;BME280;32907;41.412;2.164;2023-01-29T07:48:35;101370.63;;;15.29;32.43
47154;BME280;32907;41.412;2.164;2023-01-29T07:51:03;101377.44;;;15.32;33.00
47154;BME280;32907;41.412;2.164;2023-01-29T07:53:31;101258.16;;;14.60;32.63
47154;BME280;32907;41.412;2.164;2023-01-29T07:55:59;101406.75;;;15.52;32.77
47154;BME280;32907;41.412;2.164;2023-01-29T07:58:26;101373.56;;;15.28;33.25
47154;BME280;32907;41.412;2.164;2023-01-29T08:00:54;101335.31;;;15.07;32.59
47154;BME280;32907;41.412;2.164;2023-01-29T08:03:22;101360.69;;;15.18;32.35
47154;BME280;32907;41.412;2.164;2023-01-29T08:05:50;101369.03;;;15.17;32.50
47154;BME280;32907;41.412;2.164;2023-01-29T08:08:18;101431.69;;;15.65;32.39
47154;BME280;32907;41.412;2.164;2023-01-29T08:10:46;101414.88;;;15.52;32.45
47154;BME280;32907;41.412;2.164;2023-01-29T08:13:14;101401.63;;;15.38;32.28
47154;BME280;32907;41.412;2.164;2023-01-29T08:15:45;101429.34;;;15.46;32.39
47154;BME280;32907;41.412;2.164;2023-01-29T08:18:13;101448.00;;;15.59;32.78
47154;BME280;32907;41.412;2.164;2023-01-29T08:20:42;101445.66;;;15.62;32.60
47154;BME280;32907;41.412;2.164;2023-01-29T08:23:14;101426.75;;;15.51;32.80
47154;BME280;32907;41.412;2.164;2023-01-29T08:25:42;101451.19;;;15.68;32.69
47154;BME280;32907;41.412;2.164;2023-01-29T08:28:11;101376.75;;;15.13;32.73
47154;BME280;32907;41.412;2.164;2023-01-29T08:30:39;101446.72;;;15.50;32.93
47154;BME280;32907;41.412;2.164;2023-01-29T08:33:07;101465.53;;;15.68;33.23
47154;BME280;32907;41.412;2.164;2023-01-29T08:35:35;101454.38;;;15.64;32.99
47154;BME280;32907;41.412;2.164;2023-01-29T08:38:06;101453.03;;;15.55;33.58
47154;BME280;32907;41.412;2.164;2023-01-29T08:40:34;101475.59;;;15.84;34.57
47154;BME280;32907;41.412;2.164;2023-01-29T08:43:07;101473.00;;;15.89;33.72
47154;BME280;32907;41.412;2.164;2023-01-29T08:45:40;101479.22;;;15.90;33.26
47154;BME280;32907;41.412;2.164;2023-01-29T08:48:08;101449.06;;;15.70;32.76
47154;BME280;32907;41.412;2.164;2023-01-29T08:50:37;101475.59;;;15.84;32.91
47154;BME280;32907;41.412;2.164;2023-01-29T08:53:06;101425.34;;;15.48;32.84
47154;BME280;32907;41.412;2.164;2023-01-29T08:55:39;101484.75;;;15.83;32.89
47154;BME280;32907;41.412;2.164;2023-01-29T08:58:09;101484.28;;;15.86;33.07
47154;BME280;32907;41.412;2.164;2023-01-29T09:00:38;101449.63;;;15.60;32.40
47154;BME280;32907;41.412;2.164;2023-01-29T09:03:06;101407.50;;;15.35;32.45
47154;BME280;32907;41.412;2.164;2023-01-29T09:05:39;101451.66;;;15.53;32.45
47154;BME280;32907;41.412;2.164;2023-01-29T09:08:08;101492.88;;;15.83;32.41
47154;BME280;32907;41.412;2.164;2023-01-29T09:10:36;101469.78;;;15.64;32.47
47154;BME280;32907;41.412;2.164;2023-01-29T09:13:04;101471.75;;;15.69;32.45
47154;BME280;32907;41.412;2.164;2023-01-29T09:15:32;101362.69;;;14.99;32.90
47154;BME280;32907;41.412;2.164;2023-01-29T09:18:04;101503.66;;;15.95;33.01
47154;BME280;32907;41.412;2.164;2023-01-29T09:20:32;101442.75;;;15.64;33.39
47154;BME280;32907;41.412;2.164;2023-01-29T09:23:05;101512.31;;;16.09;33.21
47154;BME280;32907;41.412;2.164;2023-01-29T09:25:34;101509.97;;;16.12;33.01
47154;BME280;32907;41.412;2.164;2023-01-29T09:28:02;101387.53;;;15.36;33.33
47154;BME280;32907;41.412;2.164;2023-01-29T09:30:33;101477.09;;;15.92;32.86
47154;BME280;32907;41.412;2.164;2023-01-29T09:33:05;101437.34;;;15.64;32.62
47154;BME280;32907;41.412;2.164;2023-01-29T09:35:33;101513.72;;;16.11;32.54
47154;BME280;32907;41.412;2.164;2023-01-29T09:38:01;101503.28;;;16.03;32.97
47154;BME280;32907;41.412;2.164;2023-01-29T09:43:20;101521.13;;;16.16;32.84
47154;BME280;32907;41.412;2.164;2023-01-29T09:46:00;101489.44;;;15.88;33.25
47154;BME280;32907;41.412;2.164;2023-01-29T09:48:33;101531.69;;;16.17;33.14
47154;BME280;32907;41.412;2.164;2023-01-29T09:51:11;101469.50;;;15.77;33.34
47154;BME280;32907;41.412;2.164;2023-01-29T09:53:51;101496.09;;;16.09;36.03
47154;BME280;32907;41.412;2.164;2023-01-29T09:56:22;101513.28;;;16.31;36.69
47154;BME280;32907;41.412;2.164;2023-01-29T09:58:58;101458.22;;;16.09;35.12
47154;BME280;32907;41.412;2.164;2023-01-29T10:04:21;101538.13;;;16.57;34.39
47154;BME280;32907;41.412;2.164;2023-01-29T10:07:16;101508.22;;;16.35;35.38
47154;BME280;32907;41.412;2.164;2023-01-29T10:10:28;101545.97;;;16.70;35.49
47154;BME280;32907;41.412;2.164;2023-01-29T10:13:05;101507.78;;;16.55;35.64
47154;BME280;32907;41.412;2.164;2023-01-29T10:18:28;101554.84;;;16.99;35.71
47154;BME280;32907;41.412;2.164;2023-01-29T10:21:23;101555.28;;;17.08;36.56
47154;BME280;32907;41.412;2.164;2023-01-29T10:24:16;101551.16;;;17.22;36.67
47154;BME280;32907;41.412;2.164;2023-01-29T10:26:51;101532.19;;;17.22;36.17
47154;BME280;32907;41.412;2.164;2023-01-29T10:29:19;101542.63;;;17.30;33.77
47154;BME280;32907;41.412;2.164;2023-01-29T10:31:52;101547.81;;;17.15;33.08
47154;BME280;32907;41.412;2.164;2023-01-29T10:37:41;101531.88;;;16.85;33.41
47154;BME280;32907;41.412;2.164;2023-01-29T10:43:03;101535.06;;;16.82;33.64
47154;BME280;32907;41.412;2.164;2023-01-29T10:45:44;101435.34;;;16.16;33.14
47154;BME280;32907;41.412;2.164;2023-01-29T10:51:21;101531.94;;;16.73;33.56
47154;BME280;32907;41.412;2.164;2023-01-29T10:57:06;101508.16;;;16.46;34.18
47154;BME280;32907;41.412;2.164;2023-01-29T11:02:15;101526.16;;;16.53;34.13
47154;BME280;32907;41.412;2.164;2023-01-29T11:04:44;101461.88;;;16.31;41.74
47154;BME280;32907;41.412;2.164;2023-01-29T11:07:17;101504.03;;;16.89;40.84
47154;BME280;32907;41.412;2.164;2023-01-29T11:10:01;101517.84;;;17.04;39.42
47154;BME280;32907;41.412;2.164;2023-01-29T11:12:30;101498.78;;;16.99;38.80
47154;BME280;32907;41.412;2.164;2023-01-29T11:15:21;101508.22;;;17.14;38.35
47154;BME280;32907;41.412;2.164;2023-01-29T11:18:05;101497.38;;;17.14;39.80
47154;BME280;32907;41.412;2.164;2023-01-29T11:20:33;101474.91;;;16.96;39.52
47154;BME280;32907;41.412;2.164;2023-01-29T11:23:02;101495.19;;;17.11;38.19
47154;BME280;32907;41.412;2.164;2023-01-29T11:25:32;101478.44;;;16.97;37.40
47154;BME280;32907;41.412;2.164;2023-01-29T11:28:01;101455.78;;;16.86;37.70
47154;BME280;32907;41.412;2.164;2023-01-29T11:30:31;101488.59;;;17.06;37.95
47154;BME280;32907;41.412;2.164;2023-01-29T11:33:22;101478.66;;;17.12;37.61
47154;BME280;32907;41.412;2.164;2023-01-29T11:35:53;101412.84;;;16.61;37.60
47154;BME280;32907;41.412;2.164;2023-01-29T11:38:26;101425.91;;;16.81;36.77
47154;BME280;32907;41.412;2.164;2023-01-29T11:41:06;101456.59;;;17.03;36.27
47154;BME280;32907;41.412;2.164;2023-01-29T11:43:34;101399.13;;;16.68;36.26
47154;BME280;32907;41.412;2.164;2023-01-29T11:46:12;101440.75;;;16.95;37.03
47154;BME280;32907;41.412;2.164;2023-01-29T11:48:46;101428.53;;;16.93;38.76
47154;BME280;32907;41.412;2.164;2023-01-29T11:51:26;101383.06;;;16.78;37.97
47154;BME280;32907;41.412;2.164;2023-01-29T11:53:57;101447.75;;;17.30;39.01
47154;BME280;32907;41.412;2.164;2023-01-29T11:56:33;101451.59;;;17.34;37.45
47154;BME280;32907;41.412;2.164;2023-01-29T11:59:34;101451.78;;;17.27;35.91
47154;BME280;32907;41.412;2.164;2023-01-29T12:02:21;101434.47;;;17.12;35.22
47154;BME280;32907;41.412;2.164;2023-01-29T12:04:50;101442.63;;;17.12;35.38
47154;BME280;32907;41.412;2.164;2023-01-29T12:07:18;101418.00;;;16.96;36.15
47154;BME280;32907;41.412;2.164;2023-01-29T12:09:57;101439.41;;;17.15;35.76
47154;BME280;32907;41.412;2.164;2023-01-29T12:12:27;101440.28;;;17.20;36.27
47154;BME280;32907;41.412;2.164;2023-01-29T12:15:22;101438.66;;;17.19;35.11
47154;BME280;32907;41.412;2.164;2023-01-29T12:20:53;101365.50;;;16.64;35.29
47154;BME280;32907;41.412;2.164;2023-01-29T12:23:59;101440.63;;;17.07;36.26
47154;BME280;32907;41.412;2.164;2023-01-29T12:26:35;101432.75;;;17.05;35.65
47154;BME280;32907;41.412;2.164;2023-01-29T12:32:11;101430.94;;;17.11;35.92
47154;BME280;32907;41.412;2.164;2023-01-29T12:34:50;101384.28;;;16.87;38.15
47154;BME280;32907;41.412;2.164;2023-01-29T12:37:23;101420.00;;;17.23;38.08
47154;BME280;32907;41.412;2.164;2023-01-29T12:39:55;101420.06;;;17.28;38.17
47154;BME280;32907;41.412;2.164;2023-01-29T12:42:23;101386.66;;;17.00;37.13
47154;BME280;32907;41.412;2.164;2023-01-29T12:45:00;101391.81;;;17.24;36.03
47154;BME280;32907;41.412;2.164;2023-01-29T12:50:15;101407.63;;;17.32;35.56
47154;BME280;32907;41.412;2.164;2023-01-29T12:52:50;101402.03;;;17.39;35.88
47154;BME280;32907;41.412;2.164;2023-01-29T12:55:23;101384.22;;;17.43;37.60
47154;BME280;32907;41.412;2.164;2023-01-29T12:57:58;101394.66;;;17.56;35.98
47154;BME280;32907;41.412;2.164;2023-01-29T13:00:35;101399.78;;;17.52;35.38
47154;BME280;32907;41.412;2.164;2023-01-29T13:06:44;100943.94;;;14.72;36.04
47154;BME280;32907;41.412;2.164;2023-01-29T13:09:51;100828.94;;;14.04;35.50
47154;BME280;32907;41.412;2.164;2023-01-29T13:12:38;100818.69;;;13.73;34.79
47154;BME280;32907;41.412;2.164;2023-01-29T13:15:45;101380.09;;;17.40;34.19
47154;BME280;32907;41.412;2.164;2023-01-29T13:18:48;101382.19;;;17.33;34.26
47154;BME280;32907;41.412;2.164;2023-01-29T13:21:21;101314.78;;;16.98;34.44
47154;BME280;32907;41.412;2.164;2023-01-29T13:23:55;101377.81;;;17.32;35.01
47154;BME280;32907;41.412;2.164;2023-01-29T13:26:29;101322.09;;;16.97;35.14
47154;BME280;32907;41.412;2.164;2023-01-29T13:28:58;101295.25;;;16.74;35.27
47154;BME280;32907;41.412;2.164;2023-01-29T13:34:06;101363.41;;;17.26;34.97
47154;BME280;32907;41.412;2.164;2023-01-29T13:36:40;101307.28;;;16.83;35.43
47154;BME280;32907;41.412;2.164;2023-01-29T13:39:21;101355.84;;;17.28;35.21
47154;BME280;32907;41.412;2.164;2023-01-29T13:41:51;101334.22;;;17.12;35.11
47154;BME280;32907;41.412;2.164;2023-01-29T13:44:31;101346.06;;;17.27;34.98
47154;BME280;32907;41.412;2.164;2023-01-29T13:47:03;101350.66;;;17.27;34.68
47154;BME280;32907;41.412;2.164;2023-01-29T13:54:58;101360.63;;;17.21;34.19
47154;BME280;32907;41.412;2.164;2023-01-29T14:08:04;101340.13;;;17.30;35.42
47154;BME280;32907;41.412;2.164;2023-01-29T14:10:34;101301.06;;;17.04;35.39
47154;BME280;32907;41.412;2.164;2023-01-29T14:18:28;101318.84;;;17.17;36.41
47154;BME280;32907;41.412;2.164;2023-01-29T14:21:22;101341.09;;;17.41;37.79
47154;BME280;32907;41.412;2.164;2023-01-29T14:23:57;101339.38;;;17.57;38.41
47154;BME280;32907;41.412;2.164;2023-01-29T14:26:40;101331.16;;;17.52;37.48
47154;BME280;32907;41.412;2.164;2023-01-29T14:31:58;101349.16;;;17.85;36.71
47154;BME280;32907;41.412;2.164;2023-01-29T14:34:40;101326.22;;;17.71;36.53
47154;BME280;32907;41.412;2.164;2023-01-29T14:42:36;101356.28;;;17.91;36.25
47154;BME280;32907;41.412;2.164;2023-01-29T14:48:16;101361.25;;;17.99;36.47
47154;BME280;32907;41.412;2.164;2023-01-29T14:50:50;101300.31;;;17.58;36.35
47154;BME280;32907;41.412;2.164;2023-01-29T14:58:52;101364.91;;;17.88;36.05
47154;BME280;32907;41.412;2.164;2023-01-29T15:01:54;101361.19;;;17.94;36.34
47154;BME280;32907;41.412;2.164;2023-01-29T15:04:27;101298.06;;;17.50;36.20
47154;BME280;32907;41.412;2.164;2023-01-29T15:10:45;101368.31;;;18.00;35.69
47154;BME280;32907;41.412;2.164;2023-01-29T15:18:38;101377.53;;;17.99;35.77
47154;BME280;32907;41.412;2.164;2023-01-29T15:21:13;101372.13;;;18.04;38.06
47154;BME280;32907;41.412;2.164;2023-01-29T15:23:41;101381.69;;;18.12;38.63
47154;BME280;32907;41.412;2.164;2023-01-29T15:26:12;101376.88;;;18.19;38.39
47154;BME280;32907;41.412;2.164;2023-01-29T15:28:44;101383.44;;;18.23;38.55
47154;BME280;32907;41.412;2.164;2023-01-29T15:31:30;101356.97;;;18.08;37.58
47154;BME280;32907;41.412;2.164;2023-01-29T15:34:01;101310.66;;;17.88;37.20